sensor_id;sensor_type;location;lat;lon;timestamp;P1;durP1;ratioP1;P2;durP2;ratioP2
80219;SDS011;70247;37.958;23.722;2023-05-19T00:00:58;19.23;;;10.77;;
80219;SDS011;70247;37.958;23.722;2023-05-19T00:03:24;19.02;;;10.02;;
80219;SDS011;70247;37.958;23.722;2023-05-19T00:05:53;20.45;;;10.88;;
80219;SDS011;70247;37.958;23.722;2023-05-19T00:08:22;21.30;;;11.50;;
80219;SDS011;70247;37.958;23.722;2023-05-19T00:10:48;15.90;;;10.40;;
80219;SDS011;70247;37.958;23.722;2023-05-19T00:13:14;23.55;;;10.07;;
80219;SDS011;70247;37.958;23.722;2023-05-19T00:15:40;20.58;;;11.18;;
80219;SDS011;70247;37.958;23.722;2023-05-19T00:18:06;17.55;;;10.07;;
80219;SDS011;70247;37.958;23.722;2023-05-19T00:20:33;17.90;;;8.98;;
80219;SDS011;70247;37.958;23.722;2023-05-19T00:22:58;20.35;;;9.27;;
80219;SDS011;70247;37.958;23.722;2023-05-19T00:25:24;14.73;;;9.45;;
80219;SDS011;70247;37.958;23.722;2023-05-19T00:27:51;16.73;;;9.80;;
80219;SDS011;70247;37.958;23.722;2023-05-19T00:30:16;17.45;;;9.35;;
80219;SDS011;70247;37.958;23.722;2023-05-19T00:32:42;18.25;;;9.02;;
80219;SDS011;70247;37.958;23.722;2023-05-19T00:35:08;15.40;;;9.30;;
80219;SDS011;70247;37.958;23.722;2023-05-19T00:37:34;17.35;;;9.63;;
80219;SDS011;70247;37.958;23.722;2023-05-19T00:39:59;17.33;;;8.85;;
80219;SDS011;70247;37.958;23.722;2023-05-19T00:42:25;18.15;;;8.75;;
80219;SDS011;70247;37.958;23.722;2023-05-19T00:44:51;16.15;;;9.00;;
80219;SDS011;70247;37.958;23.722;2023-05-19T00:47:17;18.38;;;8.75;;
80219;SDS011;70247;37.958;23.722;2023-05-19T00:49:43;18.25;;;8.60;;
80219;SDS011;70247;37.958;23.722;2023-05-19T00:52:09;16.67;;;8.63;;
80219;SDS011;70247;37.958;23.722;2023-05-19T00:54:34;12.77;;;7.80;;
80219;SDS011;70247;37.958;23.722;2023-05-19T00:57:00;11.80;;;6.90;;
80219;SDS011;70247;37.958;23.722;2023-05-19T00:59:26;13.18;;;7.03;;
80219;SDS011;70247;37.958;23.722;2023-05-19T01:01:52;12.70;;;7.60;;
80219;SDS011;70247;37.958;23.722;2023-05-19T01:04:18;14.30;;;7.78;;
80219;SDS011;70247;37.958;23.722;2023-05-19T01:06:46;14.82;;;7.55;;
80219;SDS011;70247;37.958;23.722;2023-05-19T01:09:14;13.68;;;7.40;;
80219;SDS011;70247;37.958;23.722;2023-05-19T01:11:41;11.15;;;7.35;;
80219;SDS011;70247;37.958;23.722;2023-05-19T01:14:06;11.88;;;7.03;;
80219;SDS011;70247;37.958;23.722;2023-05-19T01:16:42;13.55;;;6.72;;
80219;SDS011;70247;37.958;23.722;2023-05-19T01:19:20;14.85;;;6.72;;
80219;SDS011;70247;37.958;23.722;2023-05-19T01:30:24;13.50;;;6.72;;
80219;SDS011;70247;37.958;23.722;2023-05-19T01:32:55;13.82;;;6.93;;
80219;SDS011;70247;37.958;23.722;2023-05-19T01:37:51;13.48;;;7.03;;
80219;SDS011;70247;37.958;23.722;2023-05-19T01:40:21;13.63;;;6.65;;
80219;SDS011;70247;37.958;23.722;2023-05-19T01:42:48;15.60;;;7.03;;
80219;SDS011;70247;37.958;23.722;2023-05-19T01:45:17;11.73;;;6.78;;
80219;SDS011;70247;37.958;23.722;2023-05-19T01:47:45;13.85;;;6.47;;
80219;SDS011;70247;37.958;23.722;2023-05-19T01:50:12;10.23;;;6.70;;
80219;SDS011;70247;37.958;23.722;2023-05-19T01:52:38;18.55;;;7.50;;
80219;SDS011;70247;37.958;23.722;2023-05-19T01:55:04;13.20;;;6.82;;
80219;SDS011;70247;37.958;23.722;2023-05-19T01:57:32;11.50;;;6.45;;
80219;SDS011;70247;37.958;23.722;2023-05-19T02:08:23;11.27;;;6.78;;
80219;SDS011;70247;37.958;23.722;2023-05-19T02:10:56;9.23;;;6.63;;
80219;SDS011;70247;37.958;23.722;2023-05-19T02:13:28;13.60;;;6.50;;
80219;SDS011;70247;37.958;23.722;2023-05-19T02:15:59;16.48;;;6.97;;
80219;SDS011;70247;37.958;23.722;2023-05-19T02:18:29;11.65;;;6.63;;
80219;SDS011;70247;37.958;23.722;2023-05-19T02:20:56;10.55;;;6.57;;
80219;SDS011;70247;37.958;23.722;2023-05-19T02:23:22;12.80;;;6.70;;
80219;SDS011;70247;37.958;23.722;2023-05-19T02:25:47;11.50;;;6.45;;
80219;SDS011;70247;37.958;23.722;2023-05-19T02:28:13;14.82;;;6.88;;
80219;SDS011;70247;37.958;23.722;2023-05-19T02:30:39;13.23;;;7.15;;
80219;SDS011;70247;37.958;23.722;2023-05-19T02:33:04;12.23;;;7.00;;
80219;SDS011;70247;37.958;23.722;2023-05-19T02:35:30;16.58;;;6.82;;
80219;SDS011;70247;37.958;23.722;2023-05-19T02:37:57;14.50;;;7.20;;
80219;SDS011;70247;37.958;23.722;2023-05-19T02:40:23;14.95;;;8.77;;
80219;SDS011;70247;37.958;23.722;2023-05-19T02:42:49;15.45;;;7.97;;
80219;SDS011;70247;37.958;23.722;2023-05-19T02:45:15;17.15;;;8.15;;
80219;SDS011;70247;37.958;23.722;2023-05-19T02:47:40;17.23;;;8.60;;
80219;SDS011;70247;37.958;23.722;2023-05-19T02:50:07;15.48;;;7.88;;
80219;SDS011;70247;37.958;23.722;2023-05-19T02:52:33;13.98;;;8.20;;
80219;SDS011;70247;37.958;23.722;2023-05-19T02:54:58;15.10;;;8.32;;
80219;SDS011;70247;37.958;23.722;2023-05-19T02:57:24;12.82;;;8.27;;
80219;SDS011;70247;37.958;23.722;2023-05-19T02:59:51;13.18;;;8.57;;
80219;SDS011;70247;37.958;23.722;2023-05-19T03:02:16;12.60;;;8.48;;
80219;SDS011;70247;37.958;23.722;2023-05-19T03:04:42;13.65;;;8.43;;
80219;SDS011;70247;37.958;23.722;2023-05-19T03:07:09;11.80;;;8.38;;
80219;SDS011;70247;37.958;23.722;2023-05-19T03:09:37;13.27;;;8.35;;
80219;SDS011;70247;37.958;23.722;2023-05-19T03:12:03;13.02;;;6.97;;
80219;SDS011;70247;37.958;23.722;2023-05-19T03:14:31;11.40;;;8.00;;
80219;SDS011;70247;37.958;23.722;2023-05-19T03:16:58;10.90;;;7.15;;
80219;SDS011;70247;37.958;23.722;2023-05-19T03:19:25;11.02;;;8.55;;
80219;SDS011;70247;37.958;23.722;2023-05-19T03:21:51;15.13;;;8.52;;
80219;SDS011;70247;37.958;23.722;2023-05-19T03:24:17;10.43;;;7.78;;
80219;SDS011;70247;37.958;23.722;2023-05-19T03:26:42;12.77;;;8.50;;
80219;SDS011;70247;37.958;23.722;2023-05-19T03:29:08;13.10;;;8.45;;
80219;SDS011;70247;37.958;23.722;2023-05-19T03:31:34;13.45;;;8.27;;
80219;SDS011;70247;37.958;23.722;2023-05-19T03:34:00;14.27;;;8.50;;
80219;SDS011;70247;37.958;23.722;2023-05-19T03:36:26;14.35;;;8.02;;
80219;SDS011;70247;37.958;23.722;2023-05-19T03:38:57;14.35;;;7.78;;
80219;SDS011;70247;37.958;23.722;2023-05-19T03:41:23;15.50;;;8.40;;
80219;SDS011;70247;37.958;23.722;2023-05-19T03:43:49;17.42;;;8.63;;
80219;SDS011;70247;37.958;23.722;2023-05-19T03:46:15;15.82;;;9.10;;
80219;SDS011;70247;37.958;23.722;2023-05-19T03:48:40;15.57;;;9.32;;
80219;SDS011;70247;37.958;23.722;2023-05-19T03:51:06;17.08;;;9.88;;
80219;SDS011;70247;37.958;23.722;2023-05-19T03:53:33;16.80;;;9.00;;
80219;SDS011;70247;37.958;23.722;2023-05-19T03:55:59;16.52;;;9.95;;
80219;SDS011;70247;37.958;23.722;2023-05-19T03:58:25;16.40;;;10.85;;
80219;SDS011;70247;37.958;23.722;2023-05-19T04:00:50;17.17;;;11.15;;
80219;SDS011;70247;37.958;23.722;2023-05-19T04:03:19;20.55;;;11.95;;
80219;SDS011;70247;37.958;23.722;2023-05-19T04:05:44;20.77;;;12.75;;
80219;SDS011;70247;37.958;23.722;2023-05-19T04:08:10;19.23;;;11.85;;
80219;SDS011;70247;37.958;23.722;2023-05-19T04:10:36;19.42;;;12.75;;
80219;SDS011;70247;37.958;23.722;2023-05-19T04:13:02;21.25;;;12.98;;
80219;SDS011;70247;37.958;23.722;2023-05-19T04:15:27;19.05;;;13.32;;
80219;SDS011;70247;37.958;23.722;2023-05-19T04:17:54;21.23;;;13.55;;
80219;SDS011;70247;37.958;23.722;2023-05-19T04:20:20;22.05;;;14.00;;
80219;SDS011;70247;37.958;23.722;2023-05-19T04:22:45;22.00;;;12.75;;
80219;SDS011;70247;37.958;23.722;2023-05-19T04:25:11;25.17;;;13.98;;
80219;SDS011;70247;37.958;23.722;2023-05-19T04:27:37;24.05;;;14.70;;
80219;SDS011;70247;37.958;23.722;2023-05-19T04:30:03;25.75;;;13.45;;
80219;SDS011;70247;37.958;23.722;2023-05-19T04:32:30;15.13;;;11.15;;
80219;SDS011;70247;37.958;23.722;2023-05-19T04:34:56;18.23;;;10.75;;
80219;SDS011;70247;37.958;23.722;2023-05-19T04:37:26;17.73;;;10.13;;
80219;SDS011;70247;37.958;23.722;2023-05-19T04:39:52;13.45;;;8.75;;
80219;SDS011;70247;37.958;23.722;2023-05-19T04:42:18;18.45;;;7.85;;
80219;SDS011;70247;37.958;23.722;2023-05-19T04:44:44;19.50;;;8.50;;
80219;SDS011;70247;37.958;23.722;2023-05-19T04:47:10;17.25;;;9.63;;
80219;SDS011;70247;37.958;23.722;2023-05-19T04:49:37;17.83;;;11.23;;
80219;SDS011;70247;37.958;23.722;2023-05-19T04:52:05;23.20;;;12.30;;
80219;SDS011;70247;37.958;23.722;2023-05-19T04:54:32;19.02;;;11.90;;
80219;SDS011;70247;37.958;23.722;2023-05-19T04:56:58;23.08;;;11.63;;
80219;SDS011;70247;37.958;23.722;2023-05-19T04:59:24;21.63;;;10.55;;
80219;SDS011;70247;37.958;23.722;2023-05-19T05:01:50;15.23;;;8.95;;
80219;SDS011;70247;37.958;23.722;2023-05-19T05:04:20;15.98;;;9.55;;
80219;SDS011;70247;37.958;23.722;2023-05-19T05:06:46;19.67;;;9.73;;
80219;SDS011;70247;37.958;23.722;2023-05-19T05:09:16;21.65;;;8.52;;
80219;SDS011;70247;37.958;23.722;2023-05-19T05:11:42;13.27;;;8.10;;
80219;SDS011;70247;37.958;23.722;2023-05-19T05:14:08;22.60;;;9.32;;
80219;SDS011;70247;37.958;23.722;2023-05-19T05:16:34;16.92;;;8.90;;
80219;SDS011;70247;37.958;23.722;2023-05-19T05:19:00;14.18;;;7.22;;
80219;SDS011;70247;37.958;23.722;2023-05-19T05:21:27;12.88;;;7.32;;
80219;SDS011;70247;37.958;23.722;2023-05-19T05:23:53;14.77;;;6.78;;
80219;SDS011;70247;37.958;23.722;2023-05-19T05:26:19;11.65;;;6.72;;
80219;SDS011;70247;37.958;23.722;2023-05-19T05:28:48;17.05;;;7.50;;
80219;SDS011;70247;37.958;23.722;2023-05-19T05:31:14;14.55;;;7.28;;
80219;SDS011;70247;37.958;23.722;2023-05-19T05:33:41;12.20;;;7.05;;
80219;SDS011;70247;37.958;23.722;2023-05-19T05:36:06;13.15;;;6.63;;
80219;SDS011;70247;37.958;23.722;2023-05-19T05:38:33;10.27;;;6.55;;
80219;SDS011;70247;37.958;23.722;2023-05-19T05:40:59;13.02;;;6.78;;
80219;SDS011;70247;37.958;23.722;2023-05-19T05:43:26;15.25;;;6.72;;
80219;SDS011;70247;37.958;23.722;2023-05-19T05:45:51;13.48;;;6.80;;
80219;SDS011;70247;37.958;23.722;2023-05-19T05:48:17;13.52;;;6.88;;
80219;SDS011;70247;37.958;23.722;2023-05-19T05:50:43;15.35;;;6.88;;
80219;SDS011;70247;37.958;23.722;2023-05-19T05:53:10;15.10;;;7.28;;
80219;SDS011;70247;37.958;23.722;2023-05-19T05:55:44;14.45;;;7.90;;
80219;SDS011;70247;37.958;23.722;2023-05-19T05:58:13;13.60;;;7.20;;
80219;SDS011;70247;37.958;23.722;2023-05-19T06:00:40;14.55;;;5.70;;
80219;SDS011;70247;37.958;23.722;2023-05-19T06:03:08;19.70;;;5.85;;
80219;SDS011;70247;37.958;23.722;2023-05-19T06:05:35;18.20;;;5.25;;
80219;SDS011;70247;37.958;23.722;2023-05-19T06:08:01;11.75;;;6.28;;
80219;SDS011;70247;37.958;23.722;2023-05-19T06:10:27;12.07;;;5.25;;
80219;SDS011;70247;37.958;23.722;2023-05-19T06:12:57;14.57;;;6.20;;
80219;SDS011;70247;37.958;23.722;2023-05-19T06:15:23;21.10;;;6.32;;
80219;SDS011;70247;37.958;23.722;2023-05-19T06:17:49;20.35;;;7.18;;
80219;SDS011;70247;37.958;23.722;2023-05-19T06:20:16;11.98;;;5.38;;
80219;SDS011;70247;37.958;23.722;2023-05-19T06:22:42;12.25;;;5.70;;
80219;SDS011;70247;37.958;23.722;2023-05-19T06:25:08;12.88;;;5.55;;
80219;SDS011;70247;37.958;23.722;2023-05-19T06:27:34;12.45;;;5.38;;
80219;SDS011;70247;37.958;23.722;2023-05-19T06:30:00;11.48;;;5.43;;
80219;SDS011;70247;37.958;23.722;2023-05-19T06:32:26;11.75;;;5.57;;
80219;SDS011;70247;37.958;23.722;2023-05-19T06:34:54;13.20;;;6.18;;
80219;SDS011;70247;37.958;23.722;2023-05-19T06:37:23;10.73;;;5.63;;
80219;SDS011;70247;37.958;23.722;2023-05-19T06:39:51;8.70;;;5.55;;
80219;SDS011;70247;37.958;23.722;2023-05-19T06:42:20;7.75;;;5.05;;
80219;SDS011;70247;37.958;23.722;2023-05-19T06:44:47;19.77;;;6.20;;
80219;SDS011;70247;37.958;23.722;2023-05-19T06:47:14;15.65;;;6.32;;
80219;SDS011;70247;37.958;23.722;2023-05-19T06:49:40;11.20;;;5.13;;
80219;SDS011;70247;37.958;23.722;2023-05-19T06:52:06;7.88;;;4.55;;
80219;SDS011;70247;37.958;23.722;2023-05-19T06:54:32;14.70;;;5.72;;
80219;SDS011;70247;37.958;23.722;2023-05-19T06:56:58;11.40;;;5.43;;
80219;SDS011;70247;37.958;23.722;2023-05-19T06:59:23;9.00;;;5.00;;
80219;SDS011;70247;37.958;23.722;2023-05-19T07:01:49;11.23;;;4.75;;
80219;SDS011;70247;37.958;23.722;2023-05-19T07:04:15;10.23;;;5.55;;
80219;SDS011;70247;37.958;23.722;2023-05-19T07:06:41;12.25;;;5.00;;
80219;SDS011;70247;37.958;23.722;2023-05-19T07:09:07;10.63;;;4.43;;
80219;SDS011;70247;37.958;23.722;2023-05-19T07:11:34;16.10;;;5.50;;
80219;SDS011;70247;37.958;23.722;2023-05-19T07:14:00;8.43;;;4.80;;
80219;SDS011;70247;37.958;23.722;2023-05-19T07:16:26;8.50;;;5.07;;
80219;SDS011;70247;37.958;23.722;2023-05-19T07:18:51;10.82;;;5.13;;
80219;SDS011;70247;37.958;23.722;2023-05-19T07:21:18;8.13;;;4.80;;
80219;SDS011;70247;37.958;23.722;2023-05-19T07:23:48;6.82;;;5.18;;
80219;SDS011;70247;37.958;23.722;2023-05-19T07:26:14;8.27;;;5.35;;
80219;SDS011;70247;37.958;23.722;2023-05-19T07:28:40;10.68;;;4.93;;
80219;SDS011;70247;37.958;23.722;2023-05-19T07:31:08;6.95;;;4.75;;
80219;SDS011;70247;37.958;23.722;2023-05-19T07:33:34;11.70;;;5.55;;
80219;SDS011;70247;37.958;23.722;2023-05-19T07:36:00;8.02;;;5.20;;
80219;SDS011;70247;37.958;23.722;2023-05-19T07:38:27;6.05;;;4.63;;
80219;SDS011;70247;37.958;23.722;2023-05-19T07:40:54;10.13;;;5.25;;
80219;SDS011;70247;37.958;23.722;2023-05-19T07:43:21;12.45;;;5.15;;
80219;SDS011;70247;37.958;23.722;2023-05-19T07:48:24;9.38;;;4.70;;
80219;SDS011;70247;37.958;23.722;2023-05-19T07:50:51;15.27;;;5.50;;
80219;SDS011;70247;37.958;23.722;2023-05-19T07:53:17;10.52;;;4.80;;
80219;SDS011;70247;37.958;23.722;2023-05-19T07:55:43;11.40;;;5.43;;
80219;SDS011;70247;37.958;23.722;2023-05-19T07:58:10;9.35;;;4.88;;
80219;SDS011;70247;37.958;23.722;2023-05-19T08:00:36;9.55;;;4.63;;
80219;SDS011;70247;37.958;23.722;2023-05-19T08:03:02;8.52;;;4.70;;
80219;SDS011;70247;37.958;23.722;2023-05-19T08:05:28;8.38;;;5.10;;
80219;SDS011;70247;37.958;23.722;2023-05-19T08:07:55;9.45;;;5.28;;
80219;SDS011;70247;37.958;23.722;2023-05-19T08:10:22;10.70;;;4.80;;
80219;SDS011;70247;37.958;23.722;2023-05-19T08:12:47;9.75;;;4.97;;
80219;SDS011;70247;37.958;23.722;2023-05-19T08:15:13;8.23;;;4.60;;
80219;SDS011;70247;37.958;23.722;2023-05-19T08:17:40;6.95;;;4.10;;
80219;SDS011;70247;37.958;23.722;2023-05-19T08:20:06;9.73;;;4.68;;
80219;SDS011;70247;37.958;23.722;2023-05-19T08:22:34;6.72;;;4.53;;
80219;SDS011;70247;37.958;23.722;2023-05-19T08:25:01;8.93;;;4.80;;
80219;SDS011;70247;37.958;23.722;2023-05-19T08:27:30;8.02;;;4.95;;
80219;SDS011;70247;37.958;23.722;2023-05-19T08:29:57;11.00;;;5.15;;
80219;SDS011;70247;37.958;23.722;2023-05-19T08:32:23;14.15;;;4.93;;
80219;SDS011;70247;37.958;23.722;2023-05-19T08:34:50;11.50;;;4.82;;
80219;SDS011;70247;37.958;23.722;2023-05-19T08:37:16;6.68;;;4.10;;
80219;SDS011;70247;37.958;23.722;2023-05-19T08:39:41;12.35;;;4.50;;
80219;SDS011;70247;37.958;23.722;2023-05-19T08:42:08;13.63;;;5.20;;
80219;SDS011;70247;37.958;23.722;2023-05-19T08:44:34;9.05;;;4.70;;
80219;SDS011;70247;37.958;23.722;2023-05-19T08:47:02;13.45;;;5.38;;
80219;SDS011;70247;37.958;23.722;2023-05-19T08:49:39;8.48;;;4.82;;
80219;SDS011;70247;37.958;23.722;2023-05-19T08:54:54;8.73;;;4.70;;
80219;SDS011;70247;37.958;23.722;2023-05-19T08:57:28;8.60;;;4.68;;
80219;SDS011;70247;37.958;23.722;2023-05-19T08:59:56;9.15;;;4.38;;
80219;SDS011;70247;37.958;23.722;2023-05-19T09:02:23;11.13;;;5.25;;
80219;SDS011;70247;37.958;23.722;2023-05-19T09:04:49;7.97;;;4.97;;
80219;SDS011;70247;37.958;23.722;2023-05-19T09:07:16;11.93;;;4.63;;
80219;SDS011;70247;37.958;23.722;2023-05-19T09:09:43;7.68;;;4.25;;
80219;SDS011;70247;37.958;23.722;2023-05-19T09:12:09;8.50;;;4.80;;
80219;SDS011;70247;37.958;23.722;2023-05-19T09:14:36;10.30;;;4.45;;
80219;SDS011;70247;37.958;23.722;2023-05-19T09:17:02;11.95;;;4.93;;
80219;SDS011;70247;37.958;23.722;2023-05-19T09:19:28;12.93;;;4.50;;
80219;SDS011;70247;37.958;23.722;2023-05-19T09:21:57;8.57;;;4.18;;
80219;SDS011;70247;37.958;23.722;2023-05-19T09:24:25;9.43;;;4.47;;
80219;SDS011;70247;37.958;23.722;2023-05-19T09:26:53;9.07;;;4.80;;
80219;SDS011;70247;37.958;23.722;2023-05-19T09:29:23;8.63;;;4.40;;
80219;SDS011;70247;37.958;23.722;2023-05-19T09:31:50;5.63;;;4.22;;
80219;SDS011;70247;37.958;23.722;2023-05-19T09:34:18;8.48;;;4.28;;
80219;SDS011;70247;37.958;23.722;2023-05-19T09:36:46;12.93;;;5.80;;
80219;SDS011;70247;37.958;23.722;2023-05-19T09:39:20;12.07;;;4.72;;
80219;SDS011;70247;37.958;23.722;2023-05-19T09:41:53;6.95;;;4.57;;
80219;SDS011;70247;37.958;23.722;2023-05-19T09:44:22;5.43;;;4.10;;
80219;SDS011;70247;37.958;23.722;2023-05-19T09:46:53;7.50;;;4.30;;
80219;SDS011;70247;37.958;23.722;2023-05-19T09:49:23;8.32;;;4.40;;
80219;SDS011;70247;37.958;23.722;2023-05-19T09:51:53;8.67;;;4.33;;
80219;SDS011;70247;37.958;23.722;2023-05-19T09:54:20;6.50;;;4.22;;
80219;SDS011;70247;37.958;23.722;2023-05-19T09:57:05;9.27;;;4.40;;
80219;SDS011;70247;37.958;23.722;2023-05-19T09:59:32;6.85;;;4.18;;
80219;SDS011;70247;37.958;23.722;2023-05-19T10:01:59;8.05;;;4.38;;
80219;SDS011;70247;37.958;23.722;2023-05-19T10:04:26;8.38;;;4.40;;
80219;SDS011;70247;37.958;23.722;2023-05-19T10:06:54;11.68;;;4.60;;
80219;SDS011;70247;37.958;23.722;2023-05-19T10:09:23;8.48;;;4.10;;
80219;SDS011;70247;37.958;23.722;2023-05-19T10:11:50;7.47;;;4.40;;
80219;SDS011;70247;37.958;23.722;2023-05-19T10:14:18;6.28;;;4.38;;
80219;SDS011;70247;37.958;23.722;2023-05-19T10:16:51;6.90;;;4.10;;
80219;SDS011;70247;37.958;23.722;2023-05-19T10:19:21;7.93;;;4.30;;
80219;SDS011;70247;37.958;23.722;2023-05-19T10:21:48;6.30;;;4.38;;
80219;SDS011;70247;37.958;23.722;2023-05-19T10:24:15;9.18;;;4.35;;
80219;SDS011;70247;37.958;23.722;2023-05-19T10:26:42;8.02;;;4.55;;
80219;SDS011;70247;37.958;23.722;2023-05-19T10:29:33;10.35;;;6.68;;
80219;SDS011;70247;37.958;23.722;2023-05-19T10:32:07;6.07;;;4.55;;
80219;SDS011;70247;37.958;23.722;2023-05-19T10:34:58;7.05;;;4.22;;
80219;SDS011;70247;37.958;23.722;2023-05-19T10:40:11;10.95;;;4.60;;
80219;SDS011;70247;37.958;23.722;2023-05-19T10:45:47;7.90;;;4.63;;
80219;SDS011;70247;37.958;23.722;2023-05-19T10:48:15;10.88;;;5.13;;
80219;SDS011;70247;37.958;23.722;2023-05-19T10:50:44;7.35;;;5.00;;
80219;SDS011;70247;37.958;23.722;2023-05-19T10:53:14;6.90;;;4.85;;
80219;SDS011;70247;37.958;23.722;2023-05-19T10:58:40;9.43;;;4.85;;
80219;SDS011;70247;37.958;23.722;2023-05-19T11:01:17;11.57;;;5.50;;
80219;SDS011;70247;37.958;23.722;2023-05-19T11:03:48;12.50;;;5.25;;
80219;SDS011;70247;37.958;23.722;2023-05-19T11:06:17;12.77;;;5.60;;
80219;SDS011;70247;37.958;23.722;2023-05-19T11:08:46;8.07;;;4.72;;
80219;SDS011;70247;37.958;23.722;2023-05-19T11:11:16;15.02;;;6.70;;
80219;SDS011;70247;37.958;23.722;2023-05-19T11:13:45;10.07;;;5.72;;
80219;SDS011;70247;37.958;23.722;2023-05-19T11:16:12;12.18;;;5.00;;
80219;SDS011;70247;37.958;23.722;2023-05-19T11:18:39;9.75;;;5.18;;
80219;SDS011;70247;37.958;23.722;2023-05-19T11:21:05;9.23;;;5.45;;
80219;SDS011;70247;37.958;23.722;2023-05-19T11:23:36;10.48;;;4.78;;
80219;SDS011;70247;37.958;23.722;2023-05-19T11:26:04;10.32;;;5.75;;
80219;SDS011;70247;37.958;23.722;2023-05-19T11:28:31;8.57;;;5.20;;
80219;SDS011;70247;37.958;23.722;2023-05-19T11:30:58;8.73;;;5.30;;
80219;SDS011;70247;37.958;23.722;2023-05-19T11:33:26;8.52;;;4.72;;
80219;SDS011;70247;37.958;23.722;2023-05-19T11:35:52;11.25;;;5.72;;
80219;SDS011;70247;37.958;23.722;2023-05-19T11:38:24;10.55;;;5.57;;
80219;SDS011;70247;37.958;23.722;2023-05-19T11:40:52;8.40;;;5.00;;
80219;SDS011;70247;37.958;23.722;2023-05-19T11:43:19;7.63;;;5.03;;
80219;SDS011;70247;37.958;23.722;2023-05-19T11:45:47;9.80;;;5.10;;
80219;SDS011;70247;37.958;23.722;2023-05-19T11:48:13;7.68;;;5.03;;
80219;SDS011;70247;37.958;23.722;2023-05-19T11:50:42;10.30;;;5.72;;
80219;SDS011;70247;37.958;23.722;2023-05-19T11:53:10;9.38;;;4.93;;
80219;SDS011;70247;37.958;23.722;2023-05-19T11:58:12;11.45;;;4.82;;
80219;SDS011;70247;37.958;23.722;2023-05-19T12:00:39;13.35;;;5.20;;
80219;SDS011;70247;37.958;23.722;2023-05-19T12:03:05;5.60;;;4.72;;
80219;SDS011;70247;37.958;23.722;2023-05-19T12:05:32;10.23;;;4.80;;
80219;SDS011;70247;37.958;23.722;2023-05-19T12:08:02;9.65;;;4.70;;
80219;SDS011;70247;37.958;23.722;2023-05-19T12:10:29;6.60;;;5.07;;
80219;SDS011;70247;37.958;23.722;2023-05-19T12:12:57;8.35;;;5.50;;
80219;SDS011;70247;37.958;23.722;2023-05-19T12:15:24;11.60;;;5.18;;
80219;SDS011;70247;37.958;23.722;2023-05-19T12:17:55;11.98;;;4.80;;
80219;SDS011;70247;37.958;23.722;2023-05-19T12:20:22;8.83;;;4.80;;
80219;SDS011;70247;37.958;23.722;2023-05-19T12:22:49;12.38;;;5.95;;
80219;SDS011;70247;37.958;23.722;2023-05-19T12:25:15;11.77;;;5.38;;
80219;SDS011;70247;37.958;23.722;2023-05-19T12:27:42;8.55;;;5.60;;
80219;SDS011;70247;37.958;23.722;2023-05-19T12:30:08;8.65;;;5.40;;
80219;SDS011;70247;37.958;23.722;2023-05-19T12:32:36;7.95;;;5.65;;
80219;SDS011;70247;37.958;23.722;2023-05-19T12:35:03;13.90;;;6.30;;
80219;SDS011;70247;37.958;23.722;2023-05-19T12:37:30;9.65;;;5.85;;
80219;SDS011;70247;37.958;23.722;2023-05-19T12:39:57;12.32;;;7.10;;
80219;SDS011;70247;37.958;23.722;2023-05-19T12:42:27;14.57;;;6.75;;
80219;SDS011;70247;37.958;23.722;2023-05-19T12:44:56;13.10;;;6.50;;
80219;SDS011;70247;37.958;23.722;2023-05-19T12:47:28;9.98;;;6.28;;
80219;SDS011;70247;37.958;23.722;2023-05-19T12:52:24;8.98;;;5.93;;
80219;SDS011;70247;37.958;23.722;2023-05-19T12:54:58;16.95;;;6.18;;
80219;SDS011;70247;37.958;23.722;2023-05-19T12:57:26;11.60;;;6.13;;
80219;SDS011;70247;37.958;23.722;2023-05-19T12:59:58;12.25;;;6.53;;
80219;SDS011;70247;37.958;23.722;2023-05-19T13:03:01;12.95;;;6.75;;
80219;SDS011;70247;37.958;23.722;2023-05-19T13:08:05;11.50;;;6.15;;
80219;SDS011;70247;37.958;23.722;2023-05-19T13:10:35;7.57;;;5.90;;
80219;SDS011;70247;37.958;23.722;2023-05-19T13:13:02;7.60;;;5.72;;
80219;SDS011;70247;37.958;23.722;2023-05-19T13:15:30;11.45;;;6.20;;
80219;SDS011;70247;37.958;23.722;2023-05-19T13:17:59;10.38;;;6.15;;
80219;SDS011;70247;37.958;23.722;2023-05-19T13:20:25;8.02;;;5.25;;
80219;SDS011;70247;37.958;23.722;2023-05-19T13:22:51;10.02;;;6.03;;
80219;SDS011;70247;37.958;23.722;2023-05-19T13:25:17;11.48;;;5.32;;
80219;SDS011;70247;37.958;23.722;2023-05-19T13:27:43;10.32;;;5.20;;
80219;SDS011;70247;37.958;23.722;2023-05-19T13:30:10;11.52;;;5.40;;
80219;SDS011;70247;37.958;23.722;2023-05-19T13:32:36;7.85;;;5.32;;
80219;SDS011;70247;37.958;23.722;2023-05-19T13:35:02;8.52;;;6.40;;
80219;SDS011;70247;37.958;23.722;2023-05-19T13:37:29;9.40;;;6.05;;
80219;SDS011;70247;37.958;23.722;2023-05-19T13:39:54;12.25;;;6.72;;
80219;SDS011;70247;37.958;23.722;2023-05-19T13:42:21;10.73;;;6.50;;
80219;SDS011;70247;37.958;23.722;2023-05-19T13:44:47;10.93;;;6.20;;
80219;SDS011;70247;37.958;23.722;2023-05-19T13:47:13;10.90;;;6.45;;
80219;SDS011;70247;37.958;23.722;2023-05-19T13:49:40;8.75;;;6.50;;
80219;SDS011;70247;37.958;23.722;2023-05-19T13:52:06;11.52;;;6.38;;
80219;SDS011;70247;37.958;23.722;2023-05-19T13:54:32;10.45;;;6.22;;
80219;SDS011;70247;37.958;23.722;2023-05-19T13:56:58;11.30;;;6.85;;
80219;SDS011;70247;37.958;23.722;2023-05-19T13:59:25;11.57;;;6.72;;
80219;SDS011;70247;37.958;23.722;2023-05-19T14:01:51;18.30;;;7.95;;
80219;SDS011;70247;37.958;23.722;2023-05-19T14:04:17;15.23;;;6.40;;
80219;SDS011;70247;37.958;23.722;2023-05-19T14:06:43;13.02;;;6.20;;
80219;SDS011;70247;37.958;23.722;2023-05-19T14:09:10;11.75;;;6.45;;
80219;SDS011;70247;37.958;23.722;2023-05-19T14:11:36;10.18;;;6.20;;
80219;SDS011;70247;37.958;23.722;2023-05-19T14:14:02;14.68;;;5.85;;
80219;SDS011;70247;37.958;23.722;2023-05-19T14:16:28;10.75;;;6.00;;
80219;SDS011;70247;37.958;23.722;2023-05-19T14:18:54;8.60;;;5.72;;
80219;SDS011;70247;37.958;23.722;2023-05-19T14:21:20;9.05;;;5.80;;
80219;SDS011;70247;37.958;23.722;2023-05-19T14:23:47;10.60;;;6.40;;
80219;SDS011;70247;37.958;23.722;2023-05-19T14:26:13;12.32;;;6.00;;
80219;SDS011;70247;37.958;23.722;2023-05-19T14:28:39;12.77;;;6.20;;
80219;SDS011;70247;37.958;23.722;2023-05-19T14:31:05;9.32;;;5.90;;
80219;SDS011;70247;37.958;23.722;2023-05-19T14:33:35;7.07;;;5.80;;
80219;SDS011;70247;37.958;23.722;2023-05-19T14:36:01;11.70;;;6.30;;
80219;SDS011;70247;37.958;23.722;2023-05-19T14:38:27;12.80;;;6.20;;
80219;SDS011;70247;37.958;23.722;2023-05-19T14:40:53;14.15;;;6.65;;
80219;SDS011;70247;37.958;23.722;2023-05-19T14:43:19;13.00;;;7.03;;
80219;SDS011;70247;37.958;23.722;2023-05-19T14:45:44;14.80;;;6.95;;
80219;SDS011;70247;37.958;23.722;2023-05-19T14:48:10;12.40;;;6.40;;
80219;SDS011;70247;37.958;23.722;2023-05-19T14:50:37;13.38;;;6.15;;
80219;SDS011;70247;37.958;23.722;2023-05-19T14:53:03;11.60;;;6.22;;
80219;SDS011;70247;37.958;23.722;2023-05-19T14:55:29;10.68;;;6.75;;
80219;SDS011;70247;37.958;23.722;2023-05-19T14:57:55;15.80;;;6.53;;
80219;SDS011;70247;37.958;23.722;2023-05-19T15:00:21;10.57;;;6.47;;
80219;SDS011;70247;37.958;23.722;2023-05-19T15:02:50;14.15;;;6.40;;
80219;SDS011;70247;37.958;23.722;2023-05-19T15:05:16;11.10;;;5.97;;